createdAt,value
2023-02-25T00:01:35.394Z,40.13
2023-02-25T00:04:10.140Z,40.28
2023-02-25T00:06:42.827Z,40.32
2023-02-25T00:09:19.477Z,40.29
2023-02-25T00:11:53.088Z,40.24
2023-02-25T00:14:23.125Z,40.25
2023-02-25T00:16:51.371Z,40.45
2023-02-25T00:19:48.374Z,40.31
2023-02-25T00:22:39.305Z,40.42
2023-02-25T00:25:16.797Z,40.29
2023-02-25T00:27:44.592Z,40.26
2023-02-25T00:30:14.811Z,40.55
2023-02-25T00:32:52.234Z,40.74
2023-02-25T00:35:42.863Z,40.52
2023-02-25T00:38:16.324Z,40.38
2023-02-25T00:40:46.307Z,39.80
2023-02-25T00:43:20.718Z,39.92
2023-02-25T00:45:48.976Z,40.48
2023-02-25T00:48:24.215Z,40.24
2023-02-25T00:50:54.070Z,40.38
2023-02-25T00:53:29.162Z,39.97
2023-02-25T00:56:04.320Z,39.90
2023-02-25T00:58:37.681Z,40.05
2023-02-25T01:01:15.356Z,39.96
2023-02-25T01:03:44.824Z,39.95
2023-02-25T01:06:16.446Z,39.64
2023-02-25T01:08:47.382Z,39.95
2023-02-25T01:11:27.622Z,39.69
2023-02-25T01:13:57.611Z,39.90
2023-02-25T01:16:29.450Z,39.87
2023-02-25T01:19:01.658Z,39.68
2023-02-25T01:21:38.178Z,39.63
2023-02-25T01:24:11.519Z,40.13
2023-02-25T01:26:46.048Z,39.79
2023-02-25T01:29:18.713Z,39.97
2023-02-25T01:31:55.815Z,40.26
2023-02-25T01:34:28.884Z,40.16
2023-02-25T01:37:02.039Z,40.16
2023-02-25T01:39:33.121Z,40.25
2023-02-25T01:42:04.915Z,40.20
2023-02-25T01:44:41.856Z,40.31
2023-02-25T01:47:24.932Z,40.45
2023-02-25T01:49:57.353Z,40.43
2023-02-25T01:52:28.251Z,40.40
2023-02-25T01:54:58.196Z,40.41
2023-02-25T01:57:34.515Z,40.32
2023-02-25T02:00:16.219Z,40.29
2023-02-25T02:02:47.379Z,40.43
2023-02-25T02:05:20.449Z,40.38
2023-02-25T02:07:54.247Z,40.17
2023-02-25T02:10:24.324Z,40.22
2023-02-25T02:12:56.781Z,39.62
2023-02-25T02:15:26.192Z,39.45
2023-02-25T02:18:00.541Z,39.36
2023-02-25T02:20:40.599Z,39.11
2023-02-25T02:23:13.196Z,38.69
2023-02-25T02:26:04.854Z,39.27
2023-02-25T02:29:12.969Z,38.69
2023-02-25T02:31:51.467Z,38.45
2023-02-25T02:34:35.341Z,38.28
2023-02-25T02:37:20.135Z,38.41
2023-02-25T02:40:21.118Z,38.16
2023-02-25T02:42:58.514Z,38.39
2023-02-25T02:45:54.820Z,38.10
2023-02-25T02:48:41.510Z,38.23
2023-02-25T02:51:20.112Z,38.23
2023-02-25T02:53:53.277Z,38.00
2023-02-25T02:56:26.971Z,37.99
2023-02-25T02:58:57.236Z,37.91
2023-02-25T03:01:34.579Z,37.88
2023-02-25T03:04:10.343Z,37.90
2023-02-25T03:06:48.270Z,38.30
2023-02-25T03:09:26.954Z,37.98
2023-02-25T03:11:56.516Z,37.86
2023-02-25T03:14:28.762Z,37.50
2023-02-25T03:17:04.712Z,37.54
2023-02-25T03:19:43.932Z,37.74
2023-02-25T03:22:27.888Z,37.55
2023-02-25T03:25:03.421Z,37.57
2023-02-25T03:27:44.052Z,37.85
2023-02-25T03:30:21.744Z,37.77
2023-02-25T03:33:04.323Z,37.46
2023-02-25T03:35:38.295Z,37.82
2023-02-25T03:38:14.388Z,37.79
2023-02-25T03:40:45.709Z,37.87
2023-02-25T03:43:21.341Z,37.76
2023-02-25T03:45:54.761Z,37.90
2023-02-25T03:48:26.954Z,37.80
2023-02-25T03:51:03.121Z,38.06
2023-02-25T03:53:35.692Z,37.83
2023-02-25T03:56:15.054Z,37.83
2023-02-25T03:58:50.499Z,38.01
2023-02-25T04:01:22.883Z,37.83
2023-02-25T04:03:55.503Z,37.91
2023-02-25T04:06:28.367Z,37.51
2023-02-25T04:08:59.052Z,37.67
2023-02-25T04:11:34.774Z,37.95
2023-02-25T04:14:07.885Z,37.67
2023-02-25T04:16:40.222Z,37.65
2023-02-25T04:19:13.353Z,37.75
2023-02-25T04:21:49.764Z,37.76
2023-02-25T04:24:22.429Z,37.65
2023-02-25T04:26:58.341Z,37.68
2023-02-25T04:29:30.792Z,37.50
2023-02-25T04:32:01.027Z,37.44
2023-02-25T04:34:34.257Z,37.76
2023-02-25T04:37:08.744Z,37.55
2023-02-25T04:39:37.439Z,37.76
2023-02-25T04:42:05.600Z,37.47
2023-02-25T04:44:33.043Z,37.67
2023-02-25T04:47:02.660Z,37.73
2023-02-25T04:49:30.537Z,37.46
2023-02-25T04:52:05.480Z,37.32
2023-02-25T04:54:35.023Z,37.14
2023-02-25T04:57:04.516Z,37.23
2023-02-25T04:59:31.987Z,37.48
2023-02-25T05:01:59.349Z,37.54
2023-02-25T05:04:29.152Z,37.46
2023-02-25T05:07:02.011Z,37.52
2023-02-25T05:09:36.934Z,37.52
2023-02-25T05:12:06.955Z,37.56
2023-02-25T05:14:41.586Z,37.54
2023-02-25T05:17:15.791Z,37.64
2023-02-25T05:19:43.204Z,37.35
2023-02-25T05:22:10.589Z,37.19
2023-02-25T05:24:44.372Z,37.35
2023-02-25T05:27:14.616Z,37.48
2023-02-25T05:29:41.883Z,37.40
2023-02-25T05:32:14.989Z,37.04
2023-02-25T05:34:47.442Z,37.08
2023-02-25T05:37:19.928Z,37.16
2023-02-25T05:39:52.586Z,37.19
2023-02-25T05:42:24.163Z,37.32
2023-02-25T05:44:54.573Z,37.16
2023-02-25T05:47:25.492Z,37.18
2023-02-25T05:50:00.128Z,36.91
2023-02-25T05:52:32.542Z,37.09
2023-02-25T05:55:02.569Z,37.02
2023-02-25T05:57:33.077Z,37.36
2023-02-25T06:00:05.031Z,37.32
2023-02-25T06:02:44.611Z,36.92
2023-02-25T06:05:14.599Z,37.05
2023-02-25T06:07:45.685Z,37.13
2023-02-25T06:10:18.137Z,37.12
2023-02-25T06:12:50.628Z,37.56
2023-02-25T06:15:20.815Z,37.00
2023-02-25T06:17:52.443Z,37.08
2023-02-25T06:20:25.371Z,36.95
2023-02-25T06:22:55.831Z,37.21
2023-02-25T06:25:29.936Z,37.31
2023-02-25T06:28:01.161Z,36.93
2023-02-25T06:30:35.364Z,36.93
2023-02-25T06:33:07.370Z,36.92
2023-02-25T06:35:40.427Z,36.80
2023-02-25T06:38:15.730Z,36.50
2023-02-25T06:40:45.384Z,36.62
2023-02-25T06:43:13.784Z,36.48
2023-02-25T06:45:46.989Z,36.63
2023-02-25T06:48:16.797Z,36.46
2023-02-25T06:50:47.103Z,36.17
2023-02-25T06:53:19.882Z,36.20
2023-02-25T06:55:55.913Z,36.13
2023-02-25T06:58:25.803Z,36.49
2023-02-25T07:00:55.407Z,36.56
2023-02-25T07:03:25.988Z,36.62
2023-02-25T07:05:55.742Z,36.41
2023-02-25T07:08:33.686Z,36.46
2023-02-25T07:11:13.405Z,36.85
2023-02-25T07:13:47.169Z,36.30
2023-02-25T07:16:20.525Z,36.36
2023-02-25T07:18:52.810Z,36.13
2023-02-25T07:21:29.313Z,36.35
2023-02-25T07:24:03.802Z,35.81
2023-02-25T07:26:34.332Z,36.28
2023-02-25T07:29:05.893Z,36.02
2023-02-25T07:31:36.452Z,36.05
2023-02-25T07:34:04.688Z,35.87
2023-02-25T07:36:37.631Z,35.52
2023-02-25T07:39:07.501Z,35.57
2023-02-25T07:41:38.352Z,35.76
2023-02-25T07:44:09.741Z,35.53
2023-02-25T07:46:41.345Z,35.72
2023-02-25T07:49:11.991Z,35.70
2023-02-25T07:51:41.745Z,35.46
2023-02-25T07:54:09.279Z,35.63
2023-02-25T07:56:48.048Z,35.79
2023-02-25T07:59:15.338Z,35.43
2023-02-25T08:01:44.218Z,35.60
2023-02-25T08:04:14.630Z,35.59
2023-02-25T08:06:44.182Z,35.53
2023-02-25T08:09:17.212Z,36.05
2023-02-25T08:11:47.405Z,36.13
2023-02-25T08:14:15.089Z,35.91
2023-02-25T08:16:45.168Z,35.88
2023-02-25T08:19:21.522Z,35.77
2023-02-25T08:21:49.033Z,35.41
2023-02-25T08:24:19.465Z,35.59
2023-02-25T08:26:49.447Z,35.47
2023-02-25T08:29:21.763Z,35.42
2023-02-25T08:31:59.280Z,35.47
2023-02-25T08:34:26.817Z,35.50
2023-02-25T08:36:54.561Z,35.17
2023-02-25T08:39:23.256Z,35.38
2023-02-25T08:41:53.030Z,35.26
2023-02-25T08:44:20.965Z,35.23
2023-02-25T08:46:57.073Z,35.41
2023-02-25T08:49:24.712Z,35.13
2023-02-25T08:51:52.374Z,35.08
2023-02-25T08:54:19.993Z,35.10
2023-02-25T08:56:50.517Z,34.97
2023-02-25T08:59:23.745Z,35.23
2023-02-25T09:01:54.269Z,35.24
2023-02-25T09:04:25.161Z,35.04
2023-02-25T09:06:58.578Z,35.12
2023-02-25T09:16:17.702Z,35.06
2023-02-25T09:18:47.094Z,35.22
2023-02-25T09:21:18.670Z,35.10
2023-02-25T09:23:50.389Z,34.99
2023-02-25T09:26:22.016Z,34.73
2023-02-25T09:28:52.413Z,34.72
2023-02-25T09:31:20.170Z,34.94
2023-02-25T09:33:50.007Z,35.20
2023-02-25T09:36:19.160Z,34.86
2023-02-25T09:38:48.860Z,34.89
2023-02-25T09:41:40.228Z,35.17
2023-02-25T09:44:20.936Z,34.90
2023-02-25T09:46:59.560Z,34.98
2023-02-25T09:49:51.820Z,35.24
2023-02-25T09:52:44.397Z,35.37
2023-02-25T09:55:22.093Z,35.59
2023-02-25T09:58:25.264Z,35.69
2023-02-25T10:01:12.180Z,35.95
2023-02-25T10:03:54.782Z,35.96
2023-02-25T10:06:39.192Z,36.08
2023-02-25T10:09:38.114Z,36.15
2023-02-25T10:12:13.412Z,35.93
2023-02-25T10:14:56.926Z,35.67
2023-02-25T10:17:50.230Z,35.50
2023-02-25T10:20:38.653Z,35.50
2023-02-25T10:23:44.192Z,35.74
2023-02-25T10:26:39.093Z,35.33
2023-02-25T10:29:11.982Z,35.33
2023-02-25T10:31:45.671Z,35.29
2023-02-25T10:34:26.430Z,35.11
2023-02-25T10:36:57.412Z,34.81
2023-02-25T10:39:28.739Z,35.04
2023-02-25T10:42:00.715Z,35.17
2023-02-25T10:44:31.107Z,34.80
2023-02-25T10:47:07.907Z,35.57
2023-02-25T10:49:44.322Z,35.59
2023-02-25T10:52:18.084Z,35.12
2023-02-25T10:54:52.992Z,35.19
2023-02-25T10:57:25.942Z,35.18
2023-02-25T11:00:21.728Z,35.46
2023-02-25T11:02:58.320Z,35.49
2023-02-25T11:05:44.947Z,35.56
2023-02-25T11:08:36.335Z,35.59
2023-02-25T11:11:34.181Z,35.52
2023-02-25T11:14:15.200Z,35.56
2023-02-25T11:16:53.072Z,35.45
2023-02-25T11:19:30.858Z,35.33
2023-02-25T11:22:10.994Z,35.22
2023-02-25T11:24:39.744Z,35.35
2023-02-25T11:27:23.310Z,35.17
2023-02-25T11:29:59.664Z,34.97
2023-02-25T11:32:32.471Z,35.33
2023-02-25T11:35:19.564Z,35.31
2023-02-25T11:37:54.765Z,35.20
2023-02-25T11:40:29.083Z,34.98
2023-02-25T11:43:17.142Z,34.82
2023-02-25T11:46:12.070Z,34.92
2023-02-25T11:49:08.942Z,34.82
2023-02-25T11:51:48.308Z,34.79
2023-02-25T11:54:37.205Z,34.39
2023-02-25T11:57:25.891Z,34.75
2023-02-25T12:00:19.350Z,34.72
2023-02-25T12:03:10.030Z,34.92
2023-02-25T12:05:40.332Z,34.57
2023-02-25T12:08:33.147Z,34.34
2023-02-25T12:11:28.964Z,34.52
2023-02-25T12:14:19.947Z,34.40
2023-02-25T12:16:56.104Z,34.40
2023-02-25T12:19:55.269Z,34.08
2023-02-25T12:22:33.878Z,34.23
2023-02-25T12:25:26.124Z,34.57
2023-02-25T12:27:56.037Z,34.85
2023-02-25T12:30:50.882Z,34.31
2023-02-25T12:33:43.647Z,34.28
2023-02-25T12:36:38.671Z,34.31
2023-02-25T12:39:39.546Z,34.59
2023-02-25T12:42:43.824Z,34.82
2023-02-25T12:45:41.235Z,34.47
2023-02-25T12:48:36.906Z,34.57
2023-02-25T12:51:45.754Z,34.78
2023-02-25T12:54:34.314Z,34.67
2023-02-25T12:57:19.780Z,34.72
2023-02-25T12:59:58.482Z,34.70
2023-02-25T13:02:37.916Z,34.77
2023-02-25T13:05:23.190Z,34.72
2023-02-25T13:08:08.016Z,34.77
2023-02-25T13:10:55.024Z,34.69
2023-02-25T13:13:59.833Z,34.89
2023-02-25T13:16:34.011Z,34.74
2023-02-25T13:19:35.079Z,34.80
2023-02-25T13:22:19.375Z,34.85
2023-02-25T13:25:19.314Z,34.93
2023-02-25T13:28:31.112Z,34.35
2023-02-25T13:31:08.931Z,34.57
2023-02-25T13:34:22.084Z,34.20
2023-02-25T13:37:23.871Z,34.45
2023-02-25T13:40:30.381Z,33.90
2023-02-25T13:43:21.434Z,34.02
2023-02-25T13:46:07.433Z,34.11
2023-02-25T13:48:50.230Z,34.18
2023-02-25T13:51:50.387Z,33.91
2023-02-25T13:54:29.353Z,34.00
2023-02-25T13:57:17.904Z,34.22
2023-02-25T14:00:01.742Z,34.22
2023-02-25T14:02:50.957Z,34.21
2023-02-25T14:05:36.843Z,34.12
2023-02-25T14:08:22.090Z,34.31
2023-02-25T14:11:02.488Z,34.12
2023-02-25T14:14:05.178Z,34.25
2023-02-25T14:17:09.623Z,34.19
2023-02-25T14:19:55.610Z,34.42
2023-02-25T14:22:37.319Z,34.37
2023-02-25T14:25:32.883Z,34.33
2023-02-25T14:28:24.494Z,34.37
2023-02-25T14:31:02.458Z,34.37
2023-02-25T14:33:30.499Z,34.47
2023-02-25T14:36:28.540Z,34.43
2023-02-25T14:39:33.312Z,34.25
2023-02-25T14:42:28.821Z,34.27
2023-02-25T14:45:06.405Z,34.54
2023-02-25T14:47:56.995Z,34.33
2023-02-25T14:50:34.397Z,34.66
2023-02-25T14:53:32.628Z,34.66
2023-02-25T14:56:37.858Z,34.63
2023-02-25T14:59:23.927Z,34.67
2023-02-25T15:02:10.751Z,34.67
2023-02-25T15:05:18.198Z,34.87
2023-02-25T15:08:16.268Z,34.90
2023-02-25T15:11:15.047Z,34.92
2023-02-25T15:14:16.115Z,34.73
2023-02-25T15:17:01.354Z,34.87
2023-02-25T15:19:40.725Z,34.86
2023-02-25T15:22:14.128Z,35.04
2023-02-25T15:24:48.144Z,34.93
2023-02-25T15:27:37.388Z,34.85
2023-02-25T15:30:18.801Z,34.82
2023-02-25T15:33:09.400Z,34.78
2023-02-25T15:35:39.458Z,34.49
2023-02-25T15:38:13.620Z,34.66
2023-02-25T15:40:53.281Z,34.77
2023-02-25T15:43:23.853Z,34.90
2023-02-25T15:46:09.599Z,34.91
2023-02-25T15:48:46.742Z,35.15
2023-02-25T15:51:46.378Z,35.09
2023-02-25T15:54:29.497Z,35.08
2023-02-25T15:57:24.543Z,35.03
2023-02-25T16:00:01.276Z,35.13
2023-02-25T16:02:35.176Z,35.18
2023-02-25T16:05:15.794Z,35.05
2023-02-25T16:07:49.896Z,35.44
2023-02-25T16:10:30.474Z,34.94
2023-02-25T16:13:04.096Z,35.45
2023-02-25T16:15:44.857Z,35.41
2023-02-25T16:18:21.851Z,35.33
2023-02-25T16:21:02.435Z,35.46
2023-02-25T16:23:37.267Z,35.45
2023-02-25T16:26:30.743Z,35.36
2023-02-25T16:29:26.138Z,35.41
2023-02-25T16:32:20.558Z,35.35
2023-02-25T16:35:03.298Z,35.39
2023-02-25T16:37:40.323Z,35.39
2023-02-25T16:40:30.504Z,35.34
2023-02-25T16:43:04.443Z,35.34
2023-02-25T16:45:44.277Z,35.51
2023-02-25T16:48:22.949Z,35.38
2023-02-25T16:51:07.366Z,35.37
2023-02-25T16:53:45.610Z,35.57
2023-02-25T16:56:21.917Z,35.56
2023-02-25T16:59:03.419Z,35.62
2023-02-25T17:01:36.408Z,35.31
2023-02-25T17:04:20.642Z,35.78
2023-02-25T17:07:08.994Z,35.89
2023-02-25T17:09:43.524Z,35.70
2023-02-25T17:12:33.774Z,35.69
2023-02-25T17:15:05.840Z,35.57
2023-02-25T17:17:42.682Z,35.64
2023-02-25T17:20:23.443Z,35.74
2023-02-25T17:22:52.513Z,35.78
2023-02-25T17:25:42.767Z,36.20
2023-02-25T17:28:23.661Z,36.04
2023-02-25T17:31:14.236Z,35.66
2023-02-25T17:33:55.422Z,35.85
2023-02-25T17:36:32.376Z,35.77
2023-02-25T17:39:18.058Z,35.84
2023-02-25T17:42:05.856Z,35.96
2023-02-25T17:44:46.635Z,36.36
2023-02-25T17:47:30.192Z,36.19
2023-02-25T17:50:19.313Z,36.30
2023-02-25T17:52:50.197Z,36.25
2023-02-25T17:55:28.304Z,36.25
2023-02-25T17:58:03.675Z,36.43
2023-02-25T18:00:37.985Z,36.37
2023-02-25T18:03:14.383Z,36.53
2023-02-25T18:05:59.901Z,36.08
2023-02-25T18:08:49.920Z,36.30
2023-02-25T18:11:30.751Z,36.50
2023-02-25T18:14:05.206Z,36.45
2023-02-25T18:16:41.058Z,36.33
2023-02-25T18:19:25.290Z,36.29
2023-02-25T18:21:53.008Z,36.38
2023-02-25T18:24:27.339Z,36.45
2023-02-25T18:27:07.704Z,36.43
2023-02-25T18:29:40.641Z,36.34
2023-02-25T18:32:12.836Z,36.11
2023-02-25T18:34:46.009Z,36.27
2023-02-25T18:37:20.818Z,36.37
2023-02-25T18:39:49.561Z,36.50
2023-02-25T18:42:24.389Z,36.23
2023-02-25T18:44:57.834Z,36.49
2023-02-25T18:47:32.478Z,36.04
2023-02-25T18:53:15.416Z,36.27
2023-02-25T18:55:46.010Z,36.01
2023-02-25T18:58:21.252Z,36.31
2023-02-25T19:00:58.668Z,36.18
2023-02-25T19:03:43.719Z,36.10
2023-02-25T19:06:17.385Z,36.43
2023-02-25T19:08:46.822Z,36.25
2023-02-25T19:11:36.722Z,36.21
2023-02-25T19:14:09.998Z,36.04
2023-02-25T19:16:38.270Z,36.30
2023-02-25T19:19:08.392Z,36.42
2023-02-25T19:21:45.038Z,36.42
2023-02-25T19:24:15.677Z,36.70
2023-02-25T19:26:48.808Z,36.17
2023-02-25T19:29:19.794Z,36.37
2023-02-25T19:31:53.225Z,36.42
2023-02-25T19:34:24.864Z,36.27
2023-02-25T19:36:56.746Z,36.61
2023-02-25T19:39:30.800Z,36.61
2023-02-25T19:42:03.469Z,36.45
2023-02-25T19:44:37.391Z,36.51
2023-02-25T19:47:08.032Z,36.40
2023-02-25T19:49:38.756Z,36.79
2023-02-25T19:52:09.139Z,36.20
2023-02-25T19:54:39.476Z,36.39
2023-02-25T19:57:12.195Z,36.49
2023-02-25T19:59:45.506Z,36.37
2023-02-25T20:02:16.346Z,36.35
2023-02-25T20:04:48.960Z,36.35
2023-02-25T20:07:25.293Z,36.37
2023-02-25T20:10:00.317Z,36.41
2023-02-25T20:12:30.324Z,36.68
2023-02-25T20:15:00.389Z,36.67
2023-02-25T20:17:40.971Z,36.31
2023-02-25T20:20:13.985Z,36.45
2023-02-25T20:22:47.292Z,36.51
2023-02-25T20:25:20.096Z,36.60
2023-02-25T20:27:55.911Z,36.54
2023-02-25T20:30:26.797Z,36.42
2023-02-25T20:32:56.895Z,36.38
2023-02-25T20:35:27.710Z,36.67
2023-02-25T20:38:16.333Z,36.45
2023-02-25T20:40:46.202Z,36.53
2023-02-25T20:43:22.186Z,36.49
2023-02-25T20:45:52.919Z,36.60
2023-02-25T20:48:31.935Z,36.07
2023-02-25T20:51:03.098Z,35.83
2023-02-25T20:53:36.820Z,35.74
2023-02-25T20:56:05.482Z,35.90
2023-02-25T20:58:41.137Z,35.95
2023-02-25T21:01:11.851Z,36.00
2023-02-25T21:03:45.608Z,36.14
2023-02-25T21:06:21.685Z,35.88
2023-02-25T21:08:52.470Z,35.97
2023-02-25T21:11:20.928Z,36.23
2023-02-25T21:13:52.240Z,36.18
2023-02-25T21:16:24.425Z,36.35
2023-02-25T21:18:57.756Z,36.35
2023-02-25T21:21:31.674Z,36.03
2023-02-25T21:24:01.729Z,36.13
2023-02-25T21:26:39.275Z,36.32
2023-02-25T21:29:09.154Z,36.39
2023-02-25T21:31:46.725Z,36.36
2023-02-25T21:34:20.088Z,36.26
2023-02-25T21:36:55.890Z,36.16
2023-02-25T21:39:27.904Z,36.09
2023-02-25T21:42:06.252Z,36.34
2023-02-25T21:44:35.957Z,36.15
2023-02-25T21:47:10.006Z,36.28
2023-02-25T21:49:37.492Z,36.33
2023-02-25T21:52:07.496Z,36.17
2023-02-25T21:54:40.379Z,36.29
2023-02-25T21:57:13.880Z,36.26
2023-02-25T21:59:50.601Z,36.26
2023-02-25T22:02:18.855Z,36.30
2023-02-25T22:04:51.645Z,36.29
2023-02-25T22:07:20.852Z,36.37
2023-02-25T22:09:53.001Z,36.25
2023-02-25T22:12:25.038Z,36.20
2023-02-25T22:15:00.124Z,36.24
2023-02-25T22:17:30.334Z,36.48
2023-02-25T22:20:00.751Z,36.48
2023-02-25T22:22:30.520Z,35.96
2023-02-25T22:25:04.582Z,36.17
2023-02-25T22:27:34.795Z,36.33
2023-02-25T22:30:10.887Z,36.12
2023-02-25T22:32:45.854Z,36.38
2023-02-25T22:35:15.987Z,36.28
2023-02-25T22:37:45.790Z,36.12
2023-02-25T22:40:16.941Z,36.21
2023-02-25T22:42:48.137Z,36.49
2023-02-25T22:45:22.018Z,36.26
2023-02-25T22:47:55.504Z,36.16
2023-02-25T22:50:23.237Z,36.03
2023-02-25T22:52:55.314Z,36.20
2023-02-25T22:55:22.853Z,36.34
2023-02-25T22:57:53.316Z,36.22
2023-02-25T23:00:24.022Z,36.16
2023-02-25T23:02:57.007Z,36.30
2023-02-25T23:05:26.676Z,36.46
2023-02-25T23:07:57.452Z,36.22
2023-02-25T23:10:36.058Z,36.32
2023-02-25T23:13:08.856Z,36.44
2023-02-25T23:15:47.898Z,36.59
2023-02-25T23:18:16.470Z,36.44
2023-02-25T23:20:53.520Z,36.27
2023-02-25T23:23:23.529Z,36.24
2023-02-25T23:25:54.377Z,36.23
2023-02-25T23:28:26.619Z,36.33
2023-02-25T23:31:00.317Z,36.34
2023-02-25T23:33:30.165Z,36.29
2023-02-25T23:36:06.096Z,36.24
2023-02-25T23:38:39.040Z,36.01
2023-02-25T23:41:12.090Z,36.03
2023-02-25T23:43:51.358Z,35.91
2023-02-25T23:46:22.221Z,36.14
2023-02-25T23:48:54.677Z,36.36
2023-02-25T23:51:28.375Z,36.19
2023-02-25T23:54:02.006Z,35.96
2023-02-25T23:56:33.670Z,36.31
2023-02-25T23:59:10.503Z,36.25
